JST685 YSSY-YMLT
Flight info
| Callsign | JST685 |
|---|---|
| Flight time | 1h 22m |
| Altitude | 38000 |
| Route | WOL H20 OTKED J22 LT |
| Aircraft | A20N/M-SDE2E3FGHIRWXY/LB1 |
Departure
| Time | 2026-04-22 05:53 |
|---|---|
| Airport | Sydney Kingsford Smith International Airport (YSSY) |
Arrival
| Time | 2026-04-22 07:15 |
|---|---|
| Airport | Launceston Airport (YMLT) |
| Time | Latitude | Longitude | Altitude | Speed | Heading |
|---|---|---|---|---|---|
| 2026-04-22 05:23 | -33.93525 | 151.17769 | 30 ft | 0 kts | 279° |
| 2026-04-22 05:40 | -33.93525 | 151.17770 | 30 ft | 1 kts | 279° |
| 2026-04-22 05:41 | -33.93527 | 151.17789 | 30 ft | 2 kts | 273° |
| 2026-04-22 05:41 | -33.93527 | 151.17809 | 30 ft | 2 kts | 261° |
| 2026-04-22 05:41 | -33.93522 | 151.17828 | 30 ft | 2 kts | 233° |
| 2026-04-22 05:41 | -33.93509 | 151.17840 | 30 ft | 2 kts | 197° |
| 2026-04-22 05:42 | -33.93499 | 151.17844 | 30 ft | 1 kts | 190° |
| 2026-04-22 05:49 | -33.93536 | 151.17836 | 30 ft | 14 kts | 190° |
| 2026-04-22 05:50 | -33.93624 | 151.17818 | 30 ft | 11 kts | 187° |
| 2026-04-22 05:50 | -33.93666 | 151.17762 | 30 ft | 11 kts | 268° |
| 2026-04-22 05:50 | -33.93653 | 151.17658 | 30 ft | 14 kts | 280° |
| 2026-04-22 05:50 | -33.93600 | 151.17535 | 17 ft | 22 kts | 340° |
| 2026-04-22 05:51 | -33.93529 | 151.17515 | 18 ft | 0 kts | 347° |
| 2026-04-22 05:51 | -33.93504 | 151.17504 | 19 ft | 8 kts | 332° |
| 2026-04-22 05:51 | -33.93481 | 151.17444 | 18 ft | 8 kts | 262° |
| 2026-04-22 05:51 | -33.93500 | 151.17362 | 16 ft | 12 kts | 251° |
| 2026-04-22 05:52 | -33.93573 | 151.17325 | 16 ft | 13 kts | 173° |
| 2026-04-22 05:52 | -33.93686 | 151.17354 | 15 ft | 33 kts | 168° |
| 2026-04-22 05:52 | -33.94183 | 151.17481 | 25 ft | 104 kts | 168° |
| 2026-04-22 05:52 | -33.95056 | 151.17709 | 32 ft | 149 kts | 167° |
| 2026-04-22 05:53 | -33.96088 | 151.17951 | 493 ft | 155 kts | 173° |
| 2026-04-22 05:53 | -33.97176 | 151.17909 | 1190 ft | 154 kts | 184° |
| 2026-04-22 05:53 | -33.98216 | 151.17750 | 1834 ft | 154 kts | 184° |
| 2026-04-22 05:53 | -33.99343 | 151.17626 | 2327 ft | 171 kts | 181° |
| 2026-04-22 05:54 | -34.00618 | 151.17554 | 2758 ft | 196 kts | 179° |
| 2026-04-22 05:54 | -34.02055 | 151.17531 | 3318 ft | 217 kts | 175° |
| 2026-04-22 05:54 | -34.03622 | 151.17795 | 3916 ft | 238 kts | 165° |
| 2026-04-22 05:54 | -34.05271 | 151.18357 | 4658 ft | 249 kts | 164° |
| 2026-04-22 05:55 | -34.06959 | 151.18935 | 5607 ft | 253 kts | 165° |
| 2026-04-22 05:55 | -34.08671 | 151.19512 | 6523 ft | 259 kts | 165° |
| 2026-04-22 05:55 | -34.10431 | 151.20098 | 7396 ft | 263 kts | 165° |
| 2026-04-22 05:55 | -34.12204 | 151.20686 | 8333 ft | 266 kts | 164° |
| 2026-04-22 05:56 | -34.14000 | 151.21281 | 9243 ft | 269 kts | 163° |
| 2026-04-22 05:56 | -34.15826 | 151.21886 | 10132 ft | 275 kts | 163° |
| 2026-04-22 05:56 | -34.17720 | 151.22485 | 10729 ft | 290 kts | 169° |
| 2026-04-22 05:56 | -34.19785 | 151.22365 | 11272 ft | 307 kts | 194° |
| 2026-04-22 05:57 | -34.21688 | 151.21145 | 12084 ft | 317 kts | 217° |
| 2026-04-22 05:57 | -34.23196 | 151.19156 | 12906 ft | 325 kts | 226° |
| 2026-04-22 05:57 | -34.24654 | 151.17046 | 13709 ft | 329 kts | 226° |
| 2026-04-22 05:57 | -34.26118 | 151.14940 | 14466 ft | 333 kts | 225° |
| 2026-04-22 05:58 | -34.27619 | 151.12800 | 15253 ft | 334 kts | 225° |
| 2026-04-22 05:58 | -34.29127 | 151.10662 | 16029 ft | 335 kts | 225° |
| 2026-04-22 05:58 | -34.30648 | 151.08513 | 16789 ft | 337 kts | 224° |
| 2026-04-22 05:58 | -34.32182 | 151.06349 | 17536 ft | 340 kts | 224° |
| 2026-04-22 05:59 | -34.33727 | 151.04171 | 18300 ft | 342 kts | 224° |
| 2026-04-22 05:59 | -34.35280 | 151.01980 | 18968 ft | 344 kts | 224° |
| 2026-04-22 05:59 | -34.36850 | 150.99781 | 19607 ft | 345 kts | 222° |
| 2026-04-22 05:59 | -34.38580 | 150.97772 | 20221 ft | 345 kts | 216° |
| 2026-04-22 06:00 | -34.40422 | 150.95807 | 20435 ft | 361 kts | 217° |
| 2026-04-22 06:00 | -34.42337 | 150.93748 | 20699 ft | 373 kts | 217° |
| 2026-04-22 06:00 | -34.44280 | 150.91643 | 21306 ft | 375 kts | 217° |
| 2026-04-22 06:00 | -34.46228 | 150.89525 | 21932 ft | 377 kts | 218° |
| 2026-04-22 06:01 | -34.48190 | 150.87392 | 22525 ft | 380 kts | 218° |
| 2026-04-22 06:01 | -34.50166 | 150.85244 | 23115 ft | 383 kts | 218° |
| 2026-04-22 06:01 | -34.52156 | 150.83080 | 23700 ft | 385 kts | 218° |
| 2026-04-22 06:01 | -34.54162 | 150.80905 | 24221 ft | 387 kts | 217° |
| 2026-04-22 06:02 | -34.56297 | 150.78918 | 24701 ft | 387 kts | 211° |
| 2026-04-22 06:02 | -34.58610 | 150.77247 | 25171 ft | 387 kts | 205° |
| 2026-04-22 06:02 | -34.60960 | 150.75712 | 25602 ft | 389 kts | 206° |
| 2026-04-22 06:02 | -34.63346 | 150.74135 | 26073 ft | 392 kts | 206° |
| 2026-04-22 06:03 | -34.65748 | 150.72540 | 26537 ft | 394 kts | 206° |
| 2026-04-22 06:03 | -34.68161 | 150.70937 | 26911 ft | 396 kts | 206° |
| 2026-04-22 06:03 | -34.70590 | 150.69324 | 27360 ft | 399 kts | 207° |
| 2026-04-22 06:03 | -34.73031 | 150.67702 | 27770 ft | 401 kts | 207° |
| 2026-04-22 06:04 | -34.75482 | 150.66073 | 28171 ft | 403 kts | 207° |
| 2026-04-22 06:04 | -34.77949 | 150.64432 | 28353 ft | 405 kts | 207° |
| 2026-04-22 06:04 | -34.80432 | 150.62779 | 28612 ft | 407 kts | 207° |
| 2026-04-22 06:04 | -34.82917 | 150.61124 | 29074 ft | 408 kts | 207° |
| 2026-04-22 06:05 | -34.85411 | 150.59462 | 29430 ft | 410 kts | 207° |
| 2026-04-22 06:05 | -34.87924 | 150.57786 | 29793 ft | 412 kts | 207° |
| 2026-04-22 06:05 | -34.90446 | 150.56103 | 30140 ft | 415 kts | 207° |
| 2026-04-22 06:05 | -34.92991 | 150.54435 | 30466 ft | 416 kts | 205° |
| 2026-04-22 06:06 | -34.95660 | 150.53040 | 30764 ft | 418 kts | 199° |
| 2026-04-22 06:06 | -34.98411 | 150.52005 | 31063 ft | 420 kts | 194° |
| 2026-04-22 06:06 | -35.01260 | 150.51175 | 31348 ft | 422 kts | 194° |
| 2026-04-22 06:06 | -35.04117 | 150.50326 | 31702 ft | 422 kts | 194° |
| 2026-04-22 06:07 | -35.06968 | 150.49474 | 32105 ft | 421 kts | 194° |
| 2026-04-22 06:07 | -35.09818 | 150.48622 | 32517 ft | 420 kts | 194° |
| 2026-04-22 06:07 | -35.12658 | 150.47775 | 32893 ft | 420 kts | 194° |
| 2026-04-22 06:07 | -35.15493 | 150.46930 | 33257 ft | 419 kts | 194° |
| 2026-04-22 06:08 | -35.18330 | 150.46084 | 33631 ft | 418 kts | 195° |
| 2026-04-22 06:08 | -35.21155 | 150.45242 | 33992 ft | 417 kts | 195° |
| 2026-04-22 06:08 | -35.23974 | 150.44401 | 34344 ft | 416 kts | 195° |
| 2026-04-22 06:08 | -35.26788 | 150.43561 | 34632 ft | 416 kts | 195° |
| 2026-04-22 06:09 | -35.29597 | 150.42721 | 34905 ft | 416 kts | 195° |
| 2026-04-22 06:09 | -35.32406 | 150.41881 | 35175 ft | 415 kts | 195° |
| 2026-04-22 06:09 | -35.35178 | 150.41051 | 35431 ft | 415 kts | 195° |
| 2026-04-22 06:09 | -35.37980 | 150.40212 | 35676 ft | 415 kts | 195° |
| 2026-04-22 06:10 | -35.40786 | 150.39371 | 35930 ft | 414 kts | 195° |
| 2026-04-22 06:10 | -35.43586 | 150.38531 | 36164 ft | 414 kts | 195° |
| 2026-04-22 06:10 | -35.46391 | 150.37689 | 36390 ft | 414 kts | 195° |
| 2026-04-22 06:10 | -35.49189 | 150.36849 | 36628 ft | 414 kts | 195° |
| 2026-04-22 06:11 | -35.51985 | 150.36008 | 36847 ft | 413 kts | 195° |
| 2026-04-22 06:11 | -35.54785 | 150.35166 | 37071 ft | 413 kts | 195° |
| 2026-04-22 06:11 | -35.57543 | 150.34336 | 37284 ft | 412 kts | 195° |
| 2026-04-22 06:11 | -35.60329 | 150.33497 | 37483 ft | 412 kts | 195° |
| 2026-04-22 06:12 | -35.63123 | 150.32655 | 37679 ft | 412 kts | 195° |
| 2026-04-22 06:12 | -35.65906 | 150.31815 | 37872 ft | 412 kts | 195° |
| 2026-04-22 06:12 | -35.68693 | 150.30974 | 38063 ft | 411 kts | 195° |
| 2026-04-22 06:12 | -35.71476 | 150.30133 | 38253 ft | 411 kts | 195° |
| 2026-04-22 06:13 | -35.76998 | 150.28463 | 38329 ft | 410 kts | 195° |
| 2026-04-22 06:13 | -35.82540 | 150.26784 | 38332 ft | 410 kts | 195° |
| 2026-04-22 06:14 | -35.88084 | 150.25102 | 38335 ft | 410 kts | 195° |
| 2026-04-22 06:14 | -35.93628 | 150.23417 | 38337 ft | 410 kts | 195° |
| 2026-04-22 06:15 | -35.99172 | 150.21731 | 38339 ft | 410 kts | 195° |
| 2026-04-22 06:15 | -36.04720 | 150.20040 | 38345 ft | 410 kts | 195° |
| 2026-04-22 06:16 | -36.10265 | 150.18348 | 38339 ft | 411 kts | 195° |
| 2026-04-22 06:16 | -36.15815 | 150.16653 | 38334 ft | 411 kts | 195° |
| 2026-04-22 06:17 | -36.21367 | 150.14954 | 38341 ft | 411 kts | 195° |
| 2026-04-22 06:17 | -36.26916 | 150.13253 | 38348 ft | 411 kts | 195° |
| 2026-04-22 06:18 | -36.32473 | 150.11548 | 38337 ft | 412 kts | 195° |
| 2026-04-22 06:18 | -36.38001 | 150.09849 | 38338 ft | 412 kts | 195° |
| 2026-04-22 06:19 | -36.43566 | 150.08137 | 38353 ft | 412 kts | 195° |
| 2026-04-22 06:19 | -36.49131 | 150.06422 | 38354 ft | 412 kts | 195° |
| 2026-04-22 06:20 | -36.54694 | 150.04705 | 38349 ft | 412 kts | 195° |
| 2026-04-22 06:20 | -36.60258 | 150.02985 | 38343 ft | 412 kts | 195° |
| 2026-04-22 06:21 | -36.65796 | 150.01271 | 38340 ft | 412 kts | 195° |
| 2026-04-22 06:21 | -36.71373 | 149.99542 | 38342 ft | 412 kts | 195° |
| 2026-04-22 06:22 | -36.76946 | 149.97812 | 38340 ft | 412 kts | 196° |
| 2026-04-22 06:22 | -36.82511 | 149.96081 | 38339 ft | 412 kts | 196° |
| 2026-04-22 06:23 | -36.88046 | 149.94358 | 38333 ft | 412 kts | 196° |
| 2026-04-22 06:23 | -36.93611 | 149.92622 | 38337 ft | 412 kts | 196° |
| 2026-04-22 06:24 | -37.01067 | 149.90292 | 38349 ft | 413 kts | 195° |
| 2026-04-22 06:25 | -37.07552 | 149.88262 | 38346 ft | 413 kts | 195° |
| 2026-04-22 06:25 | -37.12228 | 149.86796 | 38350 ft | 414 kts | 195° |
| 2026-04-22 06:26 | -37.17784 | 149.85053 | 38346 ft | 414 kts | 196° |
| 2026-04-22 06:26 | -37.23377 | 149.83294 | 38342 ft | 414 kts | 196° |
| 2026-04-22 06:27 | -37.28976 | 149.81531 | 38347 ft | 415 kts | 196° |
| 2026-04-22 06:27 | -37.34584 | 149.79763 | 38351 ft | 415 kts | 196° |
| 2026-04-22 06:28 | -37.40190 | 149.77992 | 38340 ft | 416 kts | 196° |
| 2026-04-22 06:28 | -37.45808 | 149.76215 | 38345 ft | 416 kts | 196° |
| 2026-04-22 06:29 | -37.51393 | 149.74446 | 38347 ft | 417 kts | 196° |
| 2026-04-22 06:29 | -37.57015 | 149.72623 | 38349 ft | 416 kts | 198° |
| 2026-04-22 06:30 | -37.62399 | 149.69978 | 38352 ft | 415 kts | 207° |
| 2026-04-22 06:30 | -37.67520 | 149.66620 | 38352 ft | 415 kts | 208° |
| 2026-04-22 06:31 | -37.72656 | 149.63267 | 38349 ft | 415 kts | 208° |
| 2026-04-22 06:31 | -37.77787 | 149.59901 | 38348 ft | 415 kts | 208° |
| 2026-04-22 06:32 | -37.82910 | 149.56526 | 38342 ft | 415 kts | 208° |
| 2026-04-22 06:32 | -37.88036 | 149.53141 | 38338 ft | 415 kts | 208° |
| 2026-04-22 06:33 | -37.93138 | 149.49767 | 38342 ft | 416 kts | 208° |
| 2026-04-22 06:33 | -37.98271 | 149.46367 | 38341 ft | 416 kts | 208° |
| 2026-04-22 06:34 | -38.03406 | 149.42961 | 38343 ft | 416 kts | 208° |
| 2026-04-22 06:34 | -38.08540 | 149.39550 | 38343 ft | 417 kts | 208° |
| 2026-04-22 06:35 | -38.13691 | 149.36122 | 38341 ft | 417 kts | 209° |
| 2026-04-22 06:35 | -38.18836 | 149.32692 | 38348 ft | 418 kts | 209° |
| 2026-04-22 06:36 | -38.23962 | 149.29270 | 38350 ft | 418 kts | 209° |
| 2026-04-22 06:36 | -38.29124 | 149.25819 | 38345 ft | 419 kts | 209° |
| 2026-04-22 06:37 | -38.34280 | 149.22365 | 38346 ft | 419 kts | 209° |
| 2026-04-22 06:37 | -38.39445 | 149.18900 | 38347 ft | 420 kts | 209° |
| 2026-04-22 06:38 | -38.44616 | 149.15425 | 38355 ft | 420 kts | 209° |
| 2026-04-22 06:38 | -38.49792 | 149.11942 | 38356 ft | 421 kts | 209° |
| 2026-04-22 06:39 | -38.54939 | 149.08472 | 38356 ft | 421 kts | 209° |
| 2026-04-22 06:39 | -38.60155 | 149.04949 | 38351 ft | 422 kts | 209° |
| 2026-04-22 06:40 | -38.65314 | 149.01460 | 38350 ft | 422 kts | 209° |
| 2026-04-22 06:40 | -38.70506 | 148.97943 | 38359 ft | 422 kts | 209° |
| 2026-04-22 06:41 | -38.75708 | 148.94413 | 38365 ft | 423 kts | 209° |
| 2026-04-22 06:41 | -38.80911 | 148.90876 | 38353 ft | 423 kts | 209° |
| 2026-04-22 06:42 | -38.86118 | 148.87332 | 38361 ft | 424 kts | 209° |
| 2026-04-22 06:42 | -38.91333 | 148.83775 | 38363 ft | 424 kts | 210° |
| 2026-04-22 06:43 | -38.96551 | 148.80210 | 38355 ft | 425 kts | 210° |
| 2026-04-22 06:43 | -39.01769 | 148.76639 | 38353 ft | 425 kts | 210° |
| 2026-04-22 06:44 | -39.06965 | 148.73078 | 38359 ft | 425 kts | 210° |
| 2026-04-22 06:44 | -39.12197 | 148.69486 | 38354 ft | 426 kts | 210° |
| 2026-04-22 06:45 | -39.17427 | 148.65889 | 38352 ft | 426 kts | 210° |
| 2026-04-22 06:45 | -39.22664 | 148.62281 | 38356 ft | 427 kts | 210° |
| 2026-04-22 06:46 | -39.27913 | 148.58659 | 38360 ft | 428 kts | 210° |
| 2026-04-22 06:46 | -39.33149 | 148.55039 | 38361 ft | 428 kts | 210° |
| 2026-04-22 06:47 | -39.38403 | 148.51400 | 38355 ft | 429 kts | 210° |
| 2026-04-22 06:47 | -39.43671 | 148.47746 | 38356 ft | 429 kts | 210° |
| 2026-04-22 06:48 | -39.48940 | 148.44084 | 38364 ft | 430 kts | 210° |
| 2026-04-22 06:48 | -39.54228 | 148.40404 | 38368 ft | 431 kts | 210° |
| 2026-04-22 06:49 | -39.59513 | 148.36718 | 38361 ft | 431 kts | 210° |
| 2026-04-22 06:49 | -39.64774 | 148.33043 | 38369 ft | 432 kts | 210° |
| 2026-04-22 06:50 | -39.70069 | 148.29338 | 38359 ft | 432 kts | 210° |
| 2026-04-22 06:50 | -39.75369 | 148.25623 | 38367 ft | 433 kts | 210° |
| 2026-04-22 06:51 | -39.80674 | 148.21898 | 38362 ft | 434 kts | 210° |
| 2026-04-22 06:51 | -39.85955 | 148.18183 | 38364 ft | 434 kts | 210° |
| 2026-04-22 06:52 | -39.91269 | 148.14437 | 38325 ft | 435 kts | 210° |
| 2026-04-22 06:52 | -39.93928 | 148.12561 | 38072 ft | 435 kts | 210° |
| 2026-04-22 06:52 | -39.96587 | 148.10683 | 37801 ft | 434 kts | 210° |
| 2026-04-22 06:52 | -39.99244 | 148.08805 | 37521 ft | 434 kts | 210° |
| 2026-04-22 06:53 | -40.01904 | 148.06923 | 37264 ft | 435 kts | 210° |
| 2026-04-22 06:53 | -40.04572 | 148.05035 | 37010 ft | 436 kts | 210° |
| 2026-04-22 06:53 | -40.07246 | 148.03141 | 36590 ft | 438 kts | 210° |
| 2026-04-22 06:53 | -40.09965 | 148.01276 | 35849 ft | 443 kts | 206° |
| 2026-04-22 06:54 | -40.12789 | 147.99717 | 35048 ft | 448 kts | 204° |
| 2026-04-22 06:54 | -40.15675 | 147.98166 | 34234 ft | 451 kts | 204° |
| 2026-04-22 06:54 | -40.18573 | 147.96606 | 33463 ft | 450 kts | 204° |
| 2026-04-22 06:54 | -40.21473 | 147.95039 | 32658 ft | 450 kts | 204° |
| 2026-04-22 06:55 | -40.24369 | 147.93469 | 31845 ft | 451 kts | 204° |
| 2026-04-22 06:55 | -40.27266 | 147.91896 | 31236 ft | 448 kts | 204° |
| 2026-04-22 06:55 | -40.30132 | 147.90338 | 30650 ft | 444 kts | 204° |
| 2026-04-22 06:55 | -40.32976 | 147.88790 | 30000 ft | 441 kts | 204° |
| 2026-04-22 06:56 | -40.35796 | 147.87254 | 29412 ft | 436 kts | 204° |
| 2026-04-22 06:56 | -40.38585 | 147.85733 | 28823 ft | 431 kts | 204° |
| 2026-04-22 06:56 | -40.41342 | 147.84228 | 28244 ft | 427 kts | 204° |
| 2026-04-22 06:56 | -40.44079 | 147.82732 | 27665 ft | 424 kts | 205° |
| 2026-04-22 06:57 | -40.46794 | 147.81248 | 27077 ft | 420 kts | 205° |
| 2026-04-22 06:57 | -40.49447 | 147.79795 | 26520 ft | 417 kts | 205° |
| 2026-04-22 06:57 | -40.52122 | 147.78330 | 25946 ft | 415 kts | 205° |
| 2026-04-22 06:57 | -40.54783 | 147.76870 | 25369 ft | 413 kts | 205° |
| 2026-04-22 06:58 | -40.57433 | 147.75416 | 24785 ft | 411 kts | 205° |
| 2026-04-22 06:58 | -40.60072 | 147.73966 | 24184 ft | 411 kts | 205° |
| 2026-04-22 06:58 | -40.62703 | 147.72520 | 23603 ft | 408 kts | 205° |
| 2026-04-22 06:58 | -40.65322 | 147.71079 | 23021 ft | 405 kts | 205° |
| 2026-04-22 06:59 | -40.67911 | 147.69654 | 22440 ft | 402 kts | 205° |
| 2026-04-22 06:59 | -40.70485 | 147.68236 | 21869 ft | 399 kts | 205° |
| 2026-04-22 06:59 | -40.73006 | 147.66846 | 21317 ft | 397 kts | 205° |
| 2026-04-22 06:59 | -40.75546 | 147.65444 | 20741 ft | 395 kts | 205° |
| 2026-04-22 07:00 | -40.78077 | 147.64045 | 20172 ft | 393 kts | 205° |
| 2026-04-22 07:00 | -40.80597 | 147.62652 | 19602 ft | 392 kts | 205° |
| 2026-04-22 07:00 | -40.83118 | 147.61256 | 19034 ft | 392 kts | 205° |
| 2026-04-22 07:00 | -40.85629 | 147.59865 | 18419 ft | 391 kts | 205° |
| 2026-04-22 07:01 | -40.88140 | 147.58473 | 17851 ft | 389 kts | 205° |
| 2026-04-22 07:01 | -40.90626 | 147.57094 | 17279 ft | 386 kts | 205° |
| 2026-04-22 07:01 | -40.93096 | 147.55723 | 16729 ft | 384 kts | 205° |
| 2026-04-22 07:01 | -40.95552 | 147.54359 | 16154 ft | 381 kts | 205° |
| 2026-04-22 07:02 | -40.97991 | 147.53003 | 15602 ft | 379 kts | 205° |
| 2026-04-22 07:02 | -41.00416 | 147.51653 | 15052 ft | 377 kts | 205° |
| 2026-04-22 07:02 | -41.02829 | 147.50308 | 14497 ft | 375 kts | 205° |
| 2026-04-22 07:02 | -41.05204 | 147.48984 | 13932 ft | 373 kts | 205° |
| 2026-04-22 07:03 | -41.07592 | 147.47651 | 13386 ft | 370 kts | 205° |
| 2026-04-22 07:03 | -41.09951 | 147.46332 | 12853 ft | 366 kts | 205° |
| 2026-04-22 07:03 | -41.12287 | 147.45026 | 12323 ft | 362 kts | 204° |
| 2026-04-22 07:03 | -41.14601 | 147.43731 | 11799 ft | 359 kts | 204° |
| 2026-04-22 07:04 | -41.16912 | 147.42436 | 11053 ft | 362 kts | 204° |
| 2026-04-22 07:04 | -41.19214 | 147.41147 | 10751 ft | 353 kts | 204° |
| 2026-04-22 07:04 | -41.21428 | 147.39908 | 10607 ft | 338 kts | 204° |
| 2026-04-22 07:04 | -41.23551 | 147.38717 | 10478 ft | 324 kts | 204° |
| 2026-04-22 07:05 | -41.25586 | 147.37574 | 10360 ft | 311 kts | 204° |
| 2026-04-22 07:05 | -41.27550 | 147.36497 | 10226 ft | 299 kts | 199° |
| 2026-04-22 07:05 | -41.29578 | 147.35986 | 9873 ft | 296 kts | 189° |
| 2026-04-22 07:05 | -41.31616 | 147.35626 | 9470 ft | 294 kts | 189° |
| 2026-04-22 07:06 | -41.33643 | 147.35308 | 9065 ft | 293 kts | 187° |
| 2026-04-22 07:06 | -41.35666 | 147.35096 | 8663 ft | 292 kts | 187° |
| 2026-04-22 07:06 | -41.37686 | 147.34903 | 8260 ft | 290 kts | 187° |
| 2026-04-22 07:06 | -41.39671 | 147.34725 | 7865 ft | 289 kts | 187° |
| 2026-04-22 07:07 | -41.41659 | 147.34556 | 7579 ft | 281 kts | 186° |
| 2026-04-22 07:07 | -41.43603 | 147.34397 | 7054 ft | 279 kts | 187° |
| 2026-04-22 07:07 | -41.45534 | 147.34248 | 6515 ft | 277 kts | 187° |
| 2026-04-22 07:07 | -41.47437 | 147.33990 | 5975 ft | 274 kts | 189° |
| 2026-04-22 07:08 | -41.49338 | 147.34002 | 5469 ft | 271 kts | 180° |
| 2026-04-22 07:08 | -41.51225 | 147.34188 | 4858 ft | 273 kts | 180° |
| 2026-04-22 07:08 | -41.53110 | 147.34379 | 4462 ft | 265 kts | 180° |
| 2026-04-22 07:08 | -41.54896 | 147.34542 | 4320 ft | 249 kts | 180° |
| 2026-04-22 07:09 | -41.56578 | 147.34703 | 4200 ft | 235 kts | 180° |
| 2026-04-22 07:09 | -41.58186 | 147.34850 | 3885 ft | 230 kts | 179° |
| 2026-04-22 07:09 | -41.59770 | 147.34988 | 4140 ft | 224 kts | 180° |
| 2026-04-22 07:09 | -41.61223 | 147.35132 | 5172 ft | 213 kts | 182° |
| 2026-04-22 07:10 | -41.62797 | 147.35292 | 5359 ft | 237 kts | 180° |
| 2026-04-22 07:10 | -41.63878 | 147.35426 | 5327 ft | 233 kts | 180° |
| 2026-04-22 07:10 | -41.65459 | 147.35621 | 5257 ft | 222 kts | 184° |
| 2026-04-22 07:10 | -41.66853 | 147.35212 | 5198 ft | 193 kts | 214° |
| 2026-04-22 07:11 | -41.68036 | 147.33595 | 4527 ft | 185 kts | 249° |
| 2026-04-22 07:11 | -41.68289 | 147.31933 | 3957 ft | 184 kts | 275° |
| 2026-04-22 07:11 | -41.68118 | 147.30806 | 3605 ft | 183 kts | 292° |
| 2026-04-22 07:11 | -41.67417 | 147.29400 | 3074 ft | 183 kts | 318° |
| 2026-04-22 07:12 | -41.65933 | 147.28442 | 2474 ft | 179 kts | 344° |
| 2026-04-22 07:12 | -41.65127 | 147.28166 | 2272 ft | 174 kts | 343° |
| 2026-04-22 07:12 | -41.64002 | 147.27761 | 2193 ft | 159 kts | 343° |
| 2026-04-22 07:12 | -41.63031 | 147.27337 | 2187 ft | 139 kts | 334° |
| 2026-04-22 07:13 | -41.62241 | 147.26777 | 2205 ft | 123 kts | 330° |
| 2026-04-22 07:13 | -41.61483 | 147.26233 | 2188 ft | 121 kts | 333° |
| 2026-04-22 07:13 | -41.60741 | 147.25718 | 2192 ft | 123 kts | 331° |
| 2026-04-22 07:13 | -41.59965 | 147.25184 | 2151 ft | 127 kts | 332° |
| 2026-04-22 07:14 | -41.59188 | 147.24647 | 1875 ft | 126 kts | 332° |
| 2026-04-22 07:14 | -41.58410 | 147.24110 | 1503 ft | 126 kts | 332° |
| 2026-04-22 07:14 | -41.57632 | 147.23570 | 1152 ft | 126 kts | 333° |
| 2026-04-22 07:14 | -41.56873 | 147.23047 | 885 ft | 119 kts | 333° |
| 2026-04-22 07:15 | -41.56186 | 147.22507 | 839 ft | 114 kts | 330° |
| 2026-04-22 07:15 | -41.55478 | 147.21921 | 665 ft | 123 kts | 328° |
| 2026-04-22 07:15 | -41.54759 | 147.21314 | 568 ft | 116 kts | 325° |
| 2026-04-22 07:15 | -41.54262 | 147.20887 | 570 ft | 43 kts | 327° |
| 2026-04-22 07:16 | -41.54119 | 147.20762 | 568 ft | 29 kts | 327° |
| 2026-04-22 07:16 | -41.54040 | 147.20629 | 569 ft | 17 kts | 253° |
| 2026-04-22 07:16 | -41.54127 | 147.20578 | 569 ft | 17 kts | 149° |
| 2026-04-22 07:16 | -41.54228 | 147.20669 | 566 ft | 11 kts | 147° |
| 2026-04-22 07:17 | -41.54252 | 147.20686 | 566 ft | 4 kts | 166° |
| 2026-04-22 07:17 | -41.54266 | 147.20661 | 564 ft | 3 kts | 285° |
| 2026-04-22 07:17 | -41.54254 | 147.20614 | 570 ft | 4 kts | 291° |
| 2026-04-22 07:17 | -41.54250 | 147.20600 | 569 ft | 0 kts | 291° |
| 2026-04-22 07:18 | -41.54253 | 147.20608 | 570 ft | 1 kts | 292° |
| 2026-04-22 07:18 | -41.54256 | 147.20618 | 570 ft | 0 kts | 292° |